Flight Track Log - Related Links

Times and Time Zones

All times are in EDT time to prevent confusion due to time zone crossing. See the JBU300 flight status page for this flight to view local times or setup timezone preferences in your user account.

Time Position Orientation Groundspeed Altitude Reporting Facility
EDT Latitude Longitude Course Direction KTS MPH feet Rate Location/Type
Sun 12:43:16 AM 33.8500 -118.1833 230° Southwest 185 213 1,800  Level Southern California TRACON
Sun 12:44:28 AM 33.8164 -118.2314 230° Southwest 208 239 3,700 1,714 Climbing Los Angeles Center
Sun 12:45:29 AM 33.7569 -118.2478 193° South 212 244 5,600 1,967 Climbing Los Angeles Center
Sun 12:46:30 AM 33.6997 -118.2297 165° South 217 250 7,700 1,537 Climbing Los Angeles Center
Sun 12:47:30 AM 33.6669 -118.1594 119° Southeast 266 306 8,700 1,438 Climbing Los Angeles Center
Sun 12:48:31 AM 33.6758 -118.0611 84° East 296 341 10,600 1,721 Climbing Los Angeles Center
Sun 12:49:32 AM 33.6853 -117.9483 84° East 330 380 12,200 1,574 Climbing Los Angeles Center
Sun 12:50:33 AM 33.6933 -117.8286 85° East 356 410 13,800 1,721 Climbing Los Angeles Center
Sun 12:51:34 AM 33.7050 -117.6714 85° East 391 450 15,700 1,835 Climbing Los Angeles Center
Sun 12:52:34 AM 33.7125 -117.5361 86° East 405 466 17,500 1,736 Climbing Los Angeles Center
Sun 12:53:35 AM 33.7144 -117.3961 89° East 422 486 19,200 1,525 Climbing Los Angeles Center
Sun 12:54:36 AM 33.7044 -117.2531 95° East 432 497 20,600 1,426 Climbing Los Angeles Center
Sun 12:55:37 AM 33.6944 -117.1069 95° East 438 504 22,100 1,328 Climbing Los Angeles Center
Sun 12:56:38 AM 33.6836 -116.9572 95° East 449 517 23,300 1,140 Climbing Los Angeles Center
Sun 12:57:38 AM 33.6744 -116.8067 94° East 458 527 24,400 1,140 Climbing Los Angeles Center
Sun 12:58:39 AM 33.6628 -116.6494 95° East 467 537 25,600 1,033 Climbing Los Angeles Center
Sun 12:59:40 AM 33.6528 -116.4892 94° East 476 548 26,500 893 Climbing Los Angeles Center
Sun 01:00:40 AM 33.6394 -116.3267 96° East 485 558 27,400 843 Climbing Los Angeles Center
Sun 01:01:41 AM 33.6458 -116.1631 87° East 493 567 28,200 836 Climbing Los Angeles Center
Sun 01:02:42 AM 33.6772 -116.0025 77° East 493 567 29,100 1,082 Climbing Los Angeles Center
Sun 01:03:43 AM 33.7272 -115.8517 68° East 487 560 30,400 1,140 Climbing Los Angeles Center
Sun 01:04:43 AM 33.7769 -115.7017 68° East 482 555 31,400 942 Climbing Los Angeles Center
Sun 01:05:44 AM 33.8256 -115.5508 69° East 485 558 32,300 934 Climbing Los Angeles Center
Sun 01:06:45 AM 33.8717 -115.4003 70° East 482 555 33,300 893 Climbing Los Angeles Center
Sun 01:07:45 AM 33.9197 -115.2531 68° East 474 545 34,100 694 Climbing Los Angeles Center
Sun 01:08:46 AM 33.9667 -115.1053 69° East 474 545 34,700 443 Climbing Los Angeles Center
Sun 01:09:47 AM 34.0136 -114.9558 69° East 476 548 35,000 99 Climbing Los Angeles Center
Sun 01:10:47 AM 34.0700 -114.7789 69° East 472 543 34,900 -50 Descending Los Angeles Center
Sun 01:11:48 AM 34.1175 -114.6314 69° East 471 542 34,900  Level Los Angeles Center
Sun 01:12:49 AM 34.1578 -114.4811 72° East 472 543 34,900 49 Level Los Angeles Center
Sun 01:13:50 AM 34.2011 -114.3308 71° East 474 545 35,000 50 Climbing Los Angeles Center
Sun 01:14:50 AM 34.2436 -114.1783 71° East 479 551 35,000  Level Los Angeles Center
Sun 01:15:51 AM 34.2858 -114.0283 71° East 471 542 35,000 -49 Level Los Angeles Center
Sun 01:16:52 AM 34.3183 -113.9056 72° East 477 549 34,900  Descending Los Angeles Center
Sun 01:17:53 AM 34.3711 -113.7125 72° East 482 555 35,000 50 Climbing Los Angeles Center
Sun 01:18:53 AM 34.4125 -113.5647 71° East 487 560 35,000  Level Los Angeles Center
Sun 01:19:54 AM 34.4542 -113.4106 72° East 485 558 35,000  Level Los Angeles Center
Sun 01:20:55 AM 34.4964 -113.2564 72° East 486 559 35,000  Level Los Angeles Center
Sun 01:22:01 AM 34.5456 -113.0692 72° East 490 564 35,000  Level Albuquerque Center
Sun 01:23:02 AM 34.5875 -112.9150 72° East 488 562 35,000  Level Albuquerque Center
Sun 01:24:02 AM 34.6283 -112.7603 72° East 486 559 35,000  Level Albuquerque Center
Sun 01:25:02 AM 34.6694 -112.6036 72° East 490 564 35,000  Level Albuquerque Center
Sun 01:26:03 AM 34.7097 -112.4494 72° East 488 562 35,000 -50 Level Albuquerque Center
Sun 01:27:03 AM 34.7450 -112.2925 75° East 487 560 34,900  Descending Albuquerque Center
Sun 01:28:03 AM 34.7808 -112.1347 75° East 488 562 35,000 50 Climbing Albuquerque Center
Sun 01:29:04 AM 34.8178 -111.9739 74° East 494 568 35,000  Level Albuquerque Center
Sun 01:30:04 AM 34.8539 -111.8131 75° East 497 572 35,000  Level Albuquerque Center
Sun 01:31:04 AM 34.8894 -111.6533 75° East 498 573 35,000  Level Albuquerque Center
Sun 01:32:04 AM 34.9258 -111.4911 75° East 498 573 35,000  Level Albuquerque Center
Sun 01:33:05 AM 34.9625 -111.3281 75° East 498 573 35,000  Level Albuquerque Center
Sun 01:34:05 AM 34.9978 -111.1639 75° East 498 573 35,000  Level Albuquerque Center
Sun 01:35:05 AM 35.0331 -110.9994 75° East 500 575 35,000  Level Albuquerque Center
Sun 01:36:06 AM 35.0736 -110.8181 75° East 501 577 35,000  Level Albuquerque Center
Sun 01:37:06 AM 35.1061 -110.6625 76° East 497 572 35,000  Level Albuquerque Center
Sun 01:38:06 AM 35.1458 -110.4825 75° East 494 568 35,000  Level Albuquerque Center
Sun 01:39:06 AM 35.1786 -110.3281 75° East 492 566 35,000  Level Albuquerque Center
Sun 01:40:07 AM 35.2122 -110.1733 75° East 492 566 35,000  Level Albuquerque Center
Sun 01:41:07 AM 35.2506 -109.9919 75° East 493 567 35,000  Level Albuquerque Center
Sun 01:42:07 AM 35.2831 -109.8358 76° East 495 570 35,000  Level Albuquerque Center
Sun 01:43:08 AM 35.3150 -109.6772 76° East 499 574 35,000  Level Albuquerque Center
Sun 01:44:08 AM 35.3472 -109.5181 76° East 503 579 35,000  Level Albuquerque Center
Sun 01:45:08 AM 35.3842 -109.3328 76° East 503 579 35,000  Level Albuquerque Center
Sun 01:46:08 AM 35.4167 -109.1753 76° East 501 577 35,000  Level Albuquerque Center
Sun 01:47:09 AM 35.4478 -109.0169 76° East 501 577 35,000  Level Albuquerque Center
Sun 01:48:09 AM 35.4814 -108.8317 77° East 502 578 35,000  Level Albuquerque Center
Sun 01:49:09 AM 35.4903 -108.6642 86° East 513 590 35,000  Level Albuquerque Center
Sun 01:50:09 AM 35.5006 -108.4978 86° East 514 592 35,000  Level Albuquerque Center
Sun 01:51:10 AM 35.5125 -108.3056 86° East 510 587 35,000  Level Albuquerque Center
Sun 01:52:10 AM 35.5225 -108.1406 86° East 510 587 35,000  Level Albuquerque Center
Sun 01:53:10 AM 35.5311 -107.9742 86° East 510 587 35,000  Level Albuquerque Center
Sun 01:54:11 AM 35.5414 -107.7806 86° East 510 587 35,000  Level Albuquerque Center
Sun 01:55:11 AM 35.5497 -107.6158 86° East 508 585 35,000  Level Albuquerque Center
Sun 01:56:11 AM 35.5586 -107.4500 86° East 509 586 35,000  Level Albuquerque Center
Sun 01:57:11 AM 35.5675 -107.2833 86° East 511 588 35,000  Level Albuquerque Center
Sun 01:58:12 AM 35.5756 -107.1225 86° East 511 588 35,000  Level Albuquerque Center
Sun 01:59:12 AM 35.5850 -106.9469 86° East 511 588 35,000  Level Albuquerque Center
Sun 02:00:12 AM 35.5939 -106.7744 86° East 506 582 35,000 -50 Level Albuquerque Center
Sun 02:01:13 AM 35.6019 -106.6039 87° East 500 575 34,900  Descending Albuquerque Center
Sun 02:02:13 AM 35.6097 -106.4317 87° East 502 578 35,000  Climbing Albuquerque Center
Sun 02:03:13 AM 35.6169 -106.2608 87° East 501 577 34,900  Descending Albuquerque Center
Sun 02:04:13 AM 35.6242 -106.0839 87° East 514 592 35,000 50 Climbing Albuquerque Center
Sun 02:05:14 AM 35.6314 -105.9086 87° East 514 592 35,000  Level Albuquerque Center
Sun 02:06:14 AM 35.6389 -105.7319 87° East 516 594 35,000  Level Albuquerque Center
Sun 02:07:14 AM 35.6453 -105.5256 88° East 510 587 35,000 -50 Level Albuquerque Center
Sun 02:08:15 AM 35.6519 -105.3514 87° East 507 583 34,900  Descending Albuquerque Center
Sun 02:09:15 AM 35.6567 -105.1758 88° East 507 583 35,000 50 Climbing Albuquerque Center
Sun 02:10:15 AM 35.6625 -104.9994 88° East 509 586 35,000  Level Albuquerque Center
Sun 02:11:16 AM 35.6717 -104.8514 86° East 513 590 35,000  Level Albuquerque Center
Sun 02:12:16 AM 35.6808 -104.6733 86° East 515 593 35,000  Level Albuquerque Center
Sun 02:13:16 AM 35.6903 -104.4978 86° East 510 587 35,000  Level Albuquerque Center
Sun 02:14:17 AM 35.6994 -104.3233 86° East 505 581 35,000  Level Albuquerque Center
Sun 02:15:17 AM 35.7081 -104.1500 86° East 502 578 35,000  Level Albuquerque Center
Sun 02:16:18 AM 35.7161 -103.9719 87° East 509 586 35,000  Level Albuquerque Center
Sun 02:17:18 AM 35.7236 -103.7942 87° East 512 589 35,000 50 Level Albuquerque Center
Sun 02:18:18 AM 35.7322 -103.6147 87° East 516 594 35,100  Climbing Albuquerque Center
Sun 02:19:19 AM 35.7397 -103.4367 87° East 516 594 35,000 -50 Descending Albuquerque Center
Sun 02:20:19 AM 35.7467 -103.2614 87° East 511 588 35,000  Level Albuquerque Center
Sun 02:21:19 AM 35.7531 -103.0858 87° East 509 586 35,000  Level Albuquerque Center
Sun 02:22:20 AM 35.7608 -102.9111 87° East 506 582 35,000  Level Albuquerque Center
Sun 02:23:20 AM 35.7656 -102.7392 88° East 504 580 35,000  Level Albuquerque Center
Sun 02:24:21 AM 35.7711 -102.5672 88° East 502 578 35,000  Level Albuquerque Center
Sun 02:25:21 AM 35.7767 -102.3956 88° East 502 578 35,000  Level Albuquerque Center
Sun 02:26:21 AM 35.7831 -102.2250 87° East 500 575 35,000  Level Albuquerque Center
Sun 02:27:22 AM 35.7883 -102.0550 88° East 496 571 35,000  Level Albuquerque Center
Sun 02:28:22 AM 35.7936 -101.8842 88° East 496 571 35,000  Level Albuquerque Center
Sun 02:29:22 AM 35.7989 -101.7158 88° East 492 566 35,000  Level Albuquerque Center
Sun 02:30:35 AM 35.8028 -101.5475 88° East 490 564 35,000  Level Albuquerque Center
Sun 02:31:35 AM 35.8289 -101.3464 81° East 496 571 35,000  Level Albuquerque Center
Sun 02:32:36 AM 35.8761 -101.1872 70° East 494 568 35,000  Level Albuquerque Center
Sun 02:33:36 AM 35.9328 -101.0344 65° Northeast 492 566 35,000  Level Albuquerque Center
Sun 02:34:36 AM 35.9839 -100.8942 66° East 492 566 35,000  Level Albuquerque Center
Sun 02:35:37 AM 36.0408 -100.7381 66° East 495 570 35,000  Level Albuquerque Center
Sun 02:36:37 AM 36.0950 -100.5831 67° East 492 566 35,000  Level Albuquerque Center
Sun 02:37:38 AM 36.1508 -100.4275 66° East 492 566 35,000  Level Albuquerque Center
Sun 02:38:12 AM 36.1833 -100.3347 67° East 491 565 35,000  Level Kansas City Center
Sun 02:39:14 AM 36.2394 -100.1789 66° East 492 566 35,000 -50 Level Kansas City Center
Sun 02:40:13 AM 36.2933 -100.0242 67° East 489 563 34,900  Descending Kansas City Center
Sun 02:41:12 AM 36.3433 -99.8653 69° East 493 567 35,000 50 Climbing Kansas City Center
Sun 02:42:12 AM 36.3731 -99.6975 78° East 496 571 35,000  Level Kansas City Center
Sun 02:43:12 AM 36.3989 -99.5294 79° East 494 568 35,000  Level Kansas City Center
Sun 02:44:13 AM 36.4253 -99.3617 79° East 491 565 35,000  Level Kansas City Center
Sun 02:45:16 AM 36.4508 -99.1947 79° East 488 562 35,000  Level Kansas City Center
Sun 02:46:13 AM 36.4772 -99.0283 79° East 486 559 35,000  Level Kansas City Center
Sun 02:47:13 AM 36.5014 -98.8628 80° East 484 557 35,000  Level Kansas City Center
Sun 02:48:13 AM 36.5264 -98.6994 79° East 479 551 35,000 -50 Level Kansas City Center
Sun 02:49:13 AM 36.5517 -98.5361 79° East 479 551 34,900  Descending Kansas City Center
Sun 02:50:16 AM 36.5764 -98.3736 79° East 477 549 35,000 50 Climbing Kansas City Center
Sun 02:51:14 AM 36.5994 -98.2094 80° East 479 551 35,000  Level Kansas City Center
Sun 02:52:14 AM 36.6225 -98.0456 80° East 479 551 35,000  Level Kansas City Center
Sun 02:53:14 AM 36.6458 -97.8831 80° East 478 550 35,000  Level Kansas City Center
Sun 02:54:14 AM 36.6675 -97.7300 80° East 478 550 35,000  Level Kansas City Center
Sun 02:55:15 AM 36.6903 -97.5658 80° East 482 555 35,000  Level Kansas City Center
Sun 02:56:14 AM 36.7128 -97.4083 80° East 485 558 35,000  Level Kansas City Center
Sun 02:57:15 AM 36.7350 -97.2422 80° East 486 559 35,000  Level Kansas City Center
Sun 02:58:15 AM 36.7578 -97.0800 80° East 481 554 35,000  Level Kansas City Center
Sun 02:59:15 AM 36.7883 -96.9272 76° East 476 548 35,000  Level Kansas City Center
Sun 03:00:15 AM 36.8167 -96.7642 78° East 479 551 35,000  Level Kansas City Center
Sun 03:01:15 AM 36.8444 -96.5997 78° East 481 554 35,000  Level Kansas City Center
Sun 03:02:15 AM 36.8703 -96.4375 79° East 478 550 35,000  Level Kansas City Center
Sun 03:03:16 AM 36.8981 -96.2753 78° East 476 548 35,000  Level Kansas City Center
Sun 03:04:16 AM 36.9261 -96.1117 78° East 478 550 35,000  Level Kansas City Center
Sun 03:05:18 AM 36.9536 -95.9467 78° East 480 552 35,000  Level Kansas City Center
Sun 03:06:16 AM 36.9817 -95.7814 78° East 482 555 35,000  Level Kansas City Center
Sun 03:07:19 AM 37.0089 -95.6161 78° East 481 554 35,000  Level Kansas City Center
Sun 03:08:17 AM 37.0347 -95.4539 79° East 477 549 35,000  Level Kansas City Center
Sun 03:09:18 AM 37.0608 -95.2917 79° East 473 544 35,000  Level Kansas City Center
Sun 03:10:19 AM 37.0869 -95.1306 78° East 472 543 35,000  Level Kansas City Center
Sun 03:11:19 AM 37.1139 -94.9658 78° East 475 547 35,000  Level Kansas City Center
Sun 03:12:19 AM 37.1381 -94.8011 80° East 478 550 35,000  Level Kansas City Center
Sun 03:13:17 AM 37.1636 -94.6375 79° East 478 550 35,000  Level Kansas City Center
Sun 03:14:18 AM 37.1897 -94.4728 79° East 480 552 35,000  Level Kansas City Center
Sun 03:15:18 AM 37.2153 -94.3067 79° East 482 555 35,000  Level Kansas City Center
Sun 03:16:19 AM 37.2400 -94.1406 79° East 484 557 35,000  Level Kansas City Center
Sun 03:17:18 AM 37.2633 -93.9817 79° East 483 556 35,000  Level Kansas City Center
Sun 03:18:18 AM 37.2883 -93.8158 79° East 483 556 35,000  Level Kansas City Center
Sun 03:19:19 AM 37.3122 -93.6503 80° East 481 554 35,000  Level Kansas City Center
Sun 03:20:19 AM 37.3364 -93.4831 80° East 484 557 35,000  Level Kansas City Center
Sun 03:21:19 AM 37.3581 -93.3156 81° East 484 557 35,000  Level Kansas City Center
Sun 03:22:19 AM 37.3778 -93.1492 81° East 482 555 35,000  Level Kansas City Center
Sun 03:23:20 AM 37.3956 -92.9828 82° East 480 552 35,000  Level Kansas City Center
Sun 03:24:20 AM 37.4147 -92.8167 82° East 482 555 35,000  Level Kansas City Center
Sun 03:25:20 AM 37.4331 -92.6483 82° East 484 557 35,000  Level Kansas City Center
Sun 03:26:20 AM 37.4517 -92.4822 82° East 483 556 35,000  Level Kansas City Center
Sun 03:27:20 AM 37.4697 -92.3153 82° East 483 556 35,000  Level Kansas City Center
Sun 03:28:23 AM 37.4875 -92.1486 82° East 483 556 35,000  Level Kansas City Center
Sun 03:29:21 AM 37.5047 -91.9831 82° East 481 554 35,000 -51 Level Kansas City Center
Sun 03:30:21 AM 37.5228 -91.8167 82° East 481 554 34,900  Descending Kansas City Center
Sun 03:31:21 AM 37.5389 -91.6508 83° East 478 550 35,000 49 Climbing Kansas City Center
Sun 03:32:23 AM 37.5550 -91.4839 83° East 478 550 35,000  Level Kansas City Center
Sun 03:33:22 AM 37.5731 -91.3161 82° East 481 554 35,000  Level Kansas City Center
Sun 03:34:22 AM 37.5928 -91.1142 83° East 483 556 35,000  Level Kansas City Center
Sun 03:35:22 AM 37.6081 -90.9453 83° East 483 556 35,000  Level Kansas City Center
Sun 03:36:24 AM 37.6208 -90.8086 83° East 483 556 35,000  Level Kansas City Center
Sun 03:37:23 AM 37.6372 -90.6397 83° East 485 558 35,000 300 Level Kansas City Center
Sun 03:38:24 AM 37.6519 -90.4697 84° East 488 562 35,600 793 Climbing Kansas City Center
Sun 03:39:24 AM 37.6669 -90.3075 83° East 481 554 36,600 655 Climbing Kansas City Center
Sun 03:40:23 AM 37.6836 -90.1397 83° East 481 554 36,900 202 Climbing Kansas City Center
Sun 03:41:23 AM 37.7033 -89.9672 82° East 492 566 37,000 50 Climbing Kansas City Center
Sun 03:42:24 AM 37.7264 -89.7569 82° East 503 579 37,000  Level Kansas City Center
Sun 03:43:24 AM 37.7458 -89.5839 82° East 502 578 37,000  Level Kansas City Center
Sun 03:44:26 AM 37.7636 -89.4114 83° East 500 575 37,000  Level Kansas City Center
Sun 03:45:27 AM 37.7819 -89.2450 82° East 498 573 37,000  Level Kansas City Center
Sun 03:46:24 AM 37.7994 -89.0711 83° East 497 572 37,000  Level Kansas City Center
Sun 03:47:25 AM 37.8156 -88.8958 83° East 491 565 37,000  Level Kansas City Center
Sun 03:48:25 AM 37.8336 -88.7211 82° East 496 571 37,000  Level Kansas City Center
Sun 03:49:25 AM 37.8547 -88.5511 81° East 489 563 37,000  Level Kansas City Center
Sun 03:50:25 AM 37.8717 -88.3742 83° East 499 574 37,000  Level Kansas City Center
Sun 03:51:10 AM 37.8833 -88.2322 84° East 504 580 37,000  Level Indianapolis Center
Sun 03:51:27 AM 37.8878 -88.1969 81° East 503 579 37,000  Level Kansas City Center
Sun 03:52:28 AM 37.9047 -88.0208 83° East 503 579 37,000  Level Kansas City Center
Sun 03:53:26 AM 37.9214 -87.8464 83° East 501 577 37,000  Level Kansas City Center
Sun 03:54:11 AM 37.9311 -87.7408 83° East 500 575 37,000  Level Indianapolis Center
Sun 03:55:11 AM 37.9456 -87.5656 84° East 501 577 37,000  Level Indianapolis Center
Sun 03:56:11 AM 37.9603 -87.3903 84° East 502 578 37,000  Level Indianapolis Center
Sun 03:57:11 AM 37.9786 -87.1800 84° East 503 579 37,000  Level Indianapolis Center
Sun 03:58:11 AM 37.9931 -87.0067 84° East 501 577 37,000  Level Indianapolis Center
Sun 03:59:11 AM 38.0075 -86.8322 84° East 502 578 37,000  Level Indianapolis Center
Sun 04:00:11 AM 38.0219 -86.6583 84° East 501 577 37,000  Level Indianapolis Center
Sun 04:01:11 AM 38.0367 -86.4811 84° East 505 581 37,000  Level Indianapolis Center
Sun 04:02:11 AM 38.0500 -86.3047 84° East 503 579 37,000  Level Indianapolis Center
Sun 04:03:11 AM 38.0647 -86.1283 84° East 502 578 37,000  Level Indianapolis Center
Sun 04:04:11 AM 38.0769 -85.9525 85° East 501 577 37,000  Level Indianapolis Center
Sun 04:05:11 AM 38.0903 -85.7747 85° East 504 580 37,000  Level Indianapolis Center
Sun 04:06:12 AM 38.1022 -85.5961 85° East 507 583 37,000  Level Indianapolis Center
Sun 04:07:12 AM 38.1175 -85.4175 84° East 507 583 37,000  Level Indianapolis Center
Sun 04:08:12 AM 38.1328 -85.2383 84° East 510 587 37,000  Level Indianapolis Center
Sun 04:09:12 AM 38.1447 -85.0653 85° East 506 582 37,000  Level Indianapolis Center
Sun 04:10:12 AM 38.1600 -84.8844 84° East 510 587 37,000  Level Indianapolis Center
Sun 04:11:12 AM 38.1717 -84.7067 85° East 505 581 37,000  Level Indianapolis Center
Sun 04:12:12 AM 38.1858 -84.5261 84° East 509 586 37,000  Level Indianapolis Center
Sun 04:13:12 AM 38.1978 -84.3475 85° East 506 582 37,000  Level Indianapolis Center
Sun 04:14:12 AM 38.2097 -84.1683 85° East 507 583 37,000  Level Indianapolis Center
Sun 04:15:12 AM 38.2228 -83.9897 85° East 504 580 37,000  Level Indianapolis Center
Sun 04:16:12 AM 38.2344 -83.8108 85° East 505 581 37,000  Level Indianapolis Center
Sun 04:17:12 AM 38.2467 -83.6300 85° East 511 588 37,000  Level Indianapolis Center
Sun 04:18:13 AM 38.2564 -83.4806 85° East 507 583 37,000  Level Indianapolis Center
Sun 04:19:13 AM 38.2681 -83.3006 85° East 507 583 37,000  Level Indianapolis Center
Sun 04:20:13 AM 38.2817 -83.1211 84° East 508 585 37,000  Level Indianapolis Center
Sun 04:21:13 AM 38.3067 -82.9428 80° East 509 586 37,000  Level Indianapolis Center
Sun 04:22:13 AM 38.3303 -82.7647 80° East 508 585 37,000  Level Indianapolis Center
Sun 04:23:13 AM 38.3556 -82.5872 80° East 508 585 37,000  Level Indianapolis Center
Sun 04:24:13 AM 38.3767 -82.4206 81° East 509 586 37,000  Level Indianapolis Center
Sun 04:25:13 AM 38.4003 -82.2411 80° East 511 588 37,000  Level Indianapolis Center
Sun 04:26:13 AM 38.4236 -82.0625 80° East 511 588 37,000  Level Indianapolis Center
Sun 04:27:13 AM 38.4464 -81.8844 81° East 510 587 37,000  Level Indianapolis Center
Sun 04:28:13 AM 38.4731 -81.6719 81° East 511 588 37,000  Level Indianapolis Center
Sun 04:29:14 AM 38.4950 -81.4950 81° East 514 592 37,000  Level Indianapolis Center
Sun 04:30:14 AM 38.5161 -81.3178 81° East 515 593 37,000  Level Indianapolis Center
Sun 04:31:14 AM 38.5372 -81.1394 81° East 516 594 37,000  Level Indianapolis Center
Sun 04:32:14 AM 38.5606 -80.9642 80° East 504 580 37,000  Level Indianapolis Center
Sun 04:33:14 AM 38.5825 -80.7836 81° East 514 592 37,000  Level Indianapolis Center
Sun 04:34:14 AM 38.6019 -80.6025 82° East 512 589 37,000  Level Indianapolis Center
Sun 04:35:14 AM 38.6247 -80.4228 81° East 514 592 37,000 -200 Level Indianapolis Center
Sun 04:36:14 AM 38.6464 -80.2408 81° East 517 595 36,600 -750 Descending Indianapolis Center
Sun 04:37:14 AM 38.6656 -80.0600 82° East 515 593 35,500 -1,653 Descending Indianapolis Center
Sun 04:37:52 AM 38.6783 -79.9450 82° East 520 598 33,900 -2,755 Descending Washington Center
Sun 04:38:52 AM 38.6992 -79.7628 82° East 520 598 31,000 -3,100 Descending Washington Center
Sun 04:39:52 AM 38.7181 -79.5775 82° East 520 598 27,700 -2,900 Descending Washington Center
Sun 04:40:52 AM 38.7378 -79.4189 81° East 520 598 25,200 -2,650 Descending Washington Center
Sun 04:41:52 AM 38.7564 -79.2228 83° East 509 586 22,400 -2,600 Descending Washington Center
Sun 04:42:52 AM 38.7739 -79.0586 82° East 488 562 20,000 -2,150 Descending Washington Center
Sun 04:43:52 AM 38.7886 -78.9050 83° East 460 529 18,100 -2,450 Descending Washington Center
Sun 04:44:52 AM 38.8031 -78.7511 83° East 442 509 15,100 -2,600 Descending Washington Center
Sun 04:45:52 AM 38.8172 -78.6050 83° East 425 489 12,900 -2,050 Descending Washington Center
Sun 04:46:52 AM 38.8311 -78.4644 83° East 415 478 11,000 -1,400 Descending Washington Center
Sun 04:47:52 AM 38.8425 -78.3369 83° East 383 441 10,100 -1,000 Descending Washington Center
Sun 04:48:52 AM 38.8469 -78.2250 87° East 344 396 9,000 -1,150 Descending Washington Center
Sun 04:49:52 AM 38.8328 -78.1181 100° East 316 364 7,800 -1,500 Descending Washington Center
Sun 04:50:52 AM 38.8203 -78.0164 99° East 293 337 6,000 -1,350 Descending Washington Center
Sun 04:51:52 AM 38.8075 -77.9147 99° East 293 337 5,100 -500 Descending Washington Center
Sun 04:52:52 AM 38.7950 -77.8131 99° East 288 331 5,000 -550 Descending Washington Center
Sun 04:53:52 AM 38.7819 -77.7167 100° East 283 326 4,000 -950 Descending Washington Center
Sun 04:54:52 AM 38.7692 -77.6231 100° East 273 314 3,100 -550 Descending Washington Center
Sun 04:55:52 AM 38.7744 -77.5542 84° East 239 275 2,900 -47 Descending Washington Center
Sun 04:56:59 AM 38.8000 -77.4667 69° East 189 217 3,000 -189 Climbing Potomac TRACON
Sun 04:57:59 AM 38.8333 -77.4667 360° North 155 178 2,500 -650 Descending Potomac TRACON
Sun 04:58:59 AM 38.8667 -77.4667 360° North 137 158 1,700 -800 Descending Potomac TRACON
Sun 04:59:59 AM 38.9167 -77.4667 360° North 132 152 900 -800 Descending Potomac TRACON
Sun 05:01:00 AM 38.9474 -77.4599 North  Level Estimated
Sun 05:08:00 AM 38.9474 -77.4599 159° South  Level Estimated

Login

Don't have an account? Register now (free) for customized features, flight alerts, and more!